createdAt,value
2022-11-12T00:00:40.331Z,11.00
2022-11-12T00:01:40.438Z,10.96
2022-11-12T00:02:40.301Z,10.97
2022-11-12T00:03:40.300Z,10.92
2022-11-12T00:04:40.286Z,10.90
2022-11-12T00:05:40.276Z,11.02
2022-11-12T00:06:40.425Z,10.93
2022-11-12T00:07:40.262Z,10.89
2022-11-12T00:08:40.263Z,10.93
2022-11-12T00:09:40.222Z,10.84
2022-11-12T00:10:40.235Z,10.84
2022-11-12T00:11:40.206Z,10.90
2022-11-12T00:12:40.191Z,10.89
2022-11-12T00:13:40.202Z,10.92
2022-11-12T00:14:40.180Z,10.96
2022-11-12T00:15:40.187Z,10.93
2022-11-12T00:16:40.158Z,10.99
2022-11-12T00:17:40.136Z,10.99
2022-11-12T00:18:40.144Z,10.96
2022-11-12T00:19:40.115Z,10.89
2022-11-12T00:20:40.118Z,10.90
2022-11-12T00:21:40.102Z,10.97
2022-11-12T00:22:40.225Z,10.89
2022-11-12T00:23:40.073Z,10.97
2022-11-12T00:24:40.060Z,10.93
2022-11-12T00:25:40.050Z,10.96
2022-11-12T00:26:40.042Z,10.93
2022-11-12T00:27:40.038Z,10.92
2022-11-12T00:28:40.029Z,10.92
2022-11-12T00:29:40.010Z,10.92
2022-11-12T00:30:39.998Z,10.90
2022-11-12T00:31:39.993Z,10.96
2022-11-12T00:32:39.977Z,10.94
2022-11-12T00:33:39.979Z,10.81
2022-11-12T00:34:39.964Z,10.82
2022-11-12T00:35:39.967Z,10.84
2022-11-12T00:36:39.926Z,10.87
2022-11-12T00:37:39.939Z,10.86
2022-11-12T00:38:40.067Z,10.90
2022-11-12T00:39:39.907Z,10.87
2022-11-12T00:40:39.897Z,10.84
2022-11-12T00:41:39.882Z,10.87
2022-11-12T00:42:39.874Z,10.81
2022-11-12T00:43:39.850Z,10.82
2022-11-12T00:44:39.862Z,10.89
2022-11-12T00:45:39.834Z,10.86
2022-11-12T00:46:39.840Z,10.89
2022-11-12T00:47:39.817Z,10.76
2022-11-12T00:48:39.808Z,10.81
2022-11-12T00:49:39.955Z,10.82
2022-11-12T00:50:39.810Z,10.84
2022-11-12T00:51:39.796Z,10.78
2022-11-12T00:52:39.762Z,10.69
2022-11-12T00:53:39.810Z,10.60
2022-11-12T00:54:39.868Z,10.56
2022-11-12T00:55:39.734Z,10.41
2022-11-12T00:56:39.745Z,10.59
2022-11-12T00:57:39.719Z,10.54
2022-11-12T00:58:39.691Z,10.54
2022-11-12T00:59:39.697Z,10.49
2022-11-12T01:00:39.727Z,10.54
2022-11-12T01:01:39.665Z,10.49
2022-11-12T01:02:44.173Z,10.56
2022-11-12T01:03:40.682Z,10.49
2022-11-12T01:04:39.632Z,10.54
2022-11-12T01:05:39.622Z,10.49
2022-11-12T01:06:39.691Z,10.54
2022-11-12T01:07:39.598Z,10.56
2022-11-12T01:08:39.581Z,10.61
2022-11-12T01:09:39.586Z,10.61
2022-11-12T01:10:39.682Z,10.60
2022-11-12T01:11:39.554Z,10.68
2022-11-12T01:12:39.568Z,10.69
2022-11-12T01:13:43.941Z,10.61
2022-11-12T01:14:39.535Z,10.71
2022-11-12T01:15:39.516Z,10.61
2022-11-12T01:16:39.502Z,10.57
2022-11-12T01:17:39.506Z,10.54
2022-11-12T01:18:39.477Z,10.60
2022-11-12T01:19:39.473Z,10.63
2022-11-12T01:20:39.462Z,10.57
2022-11-12T01:21:39.455Z,10.61
2022-11-12T01:22:39.434Z,10.60
2022-11-12T01:23:39.450Z,10.54
2022-11-12T01:24:39.429Z,10.54
2022-11-12T01:25:39.402Z,10.53
2022-11-12T01:26:39.511Z,10.54
2022-11-12T01:27:39.387Z,10.51
2022-11-12T01:28:39.394Z,10.56
2022-11-12T01:29:39.355Z,10.54
2022-11-12T01:30:39.362Z,10.53
2022-11-12T01:31:39.343Z,10.53
2022-11-12T01:32:39.337Z,10.46
2022-11-12T01:33:39.321Z,10.49
2022-11-12T01:34:39.316Z,10.49
2022-11-12T01:35:39.305Z,10.46
2022-11-12T01:36:39.289Z,10.53
2022-11-12T01:37:39.276Z,10.56
2022-11-12T01:38:39.291Z,10.41
2022-11-12T01:39:39.278Z,10.54
2022-11-12T01:40:39.244Z,10.48
2022-11-12T01:41:39.239Z,10.54
2022-11-12T01:42:39.326Z,10.57
2022-11-12T01:43:39.224Z,10.59
2022-11-12T01:44:39.215Z,10.53
2022-11-12T01:45:39.243Z,10.57
2022-11-12T01:46:39.181Z,10.59
2022-11-12T01:47:39.163Z,10.56
2022-11-12T01:48:39.163Z,10.57
2022-11-12T01:49:39.153Z,10.57
2022-11-12T01:50:39.134Z,10.54
2022-11-12T01:51:39.163Z,10.59
2022-11-12T01:52:39.127Z,10.53
2022-11-12T01:53:39.110Z,10.54
2022-11-12T01:54:39.106Z,10.53
2022-11-12T01:55:39.085Z,10.61
2022-11-12T01:56:42.355Z,10.57
2022-11-12T01:57:39.070Z,10.54
2022-11-12T01:58:39.153Z,10.49
2022-11-12T01:59:39.038Z,10.51
2022-11-12T02:00:39.024Z,10.48
2022-11-12T02:01:39.029Z,10.40
2022-11-12T02:02:39.022Z,10.41
2022-11-12T02:03:39.021Z,10.44
2022-11-12T02:04:38.979Z,10.35
2022-11-12T02:05:38.990Z,10.41
2022-11-12T02:06:39.004Z,10.44
2022-11-12T02:07:38.959Z,10.46
2022-11-12T02:08:38.937Z,10.41
2022-11-12T02:09:38.944Z,10.38
2022-11-12T02:10:38.927Z,10.49
2022-11-12T02:11:38.911Z,10.51
2022-11-12T02:12:38.902Z,10.48
2022-11-12T02:13:38.877Z,10.51
2022-11-12T02:14:38.984Z,10.49
2022-11-12T02:15:38.870Z,10.54
2022-11-12T02:16:38.855Z,10.56
2022-11-12T02:17:38.897Z,10.51
2022-11-12T02:18:38.835Z,10.54
2022-11-12T02:19:38.823Z,10.56
2022-11-12T02:20:38.794Z,10.53
2022-11-12T02:21:38.851Z,10.56
2022-11-12T02:22:38.793Z,10.46
2022-11-12T02:23:38.786Z,10.53
2022-11-12T02:24:38.772Z,10.48
2022-11-12T02:25:38.752Z,10.46
2022-11-12T02:26:38.832Z,10.54
2022-11-12T02:27:38.727Z,10.54
2022-11-12T02:28:38.969Z,10.44
2022-11-12T02:29:38.703Z,10.48
2022-11-12T02:30:38.823Z,10.48
2022-11-12T02:31:38.690Z,10.51
2022-11-12T02:32:38.669Z,10.48
2022-11-12T02:33:38.675Z,10.48
2022-11-12T02:34:38.661Z,10.51
2022-11-12T02:35:38.650Z,10.49
2022-11-12T02:36:38.637Z,10.54
2022-11-12T02:37:38.622Z,10.49
2022-11-12T02:38:38.607Z,10.59
2022-11-12T02:39:38.598Z,10.57
2022-11-12T02:40:38.589Z,10.57
2022-11-12T02:41:38.658Z,10.48
2022-11-12T02:42:38.566Z,10.51
2022-11-12T02:43:38.547Z,10.41
2022-11-12T02:44:38.553Z,10.46
2022-11-12T02:45:38.534Z,10.53
2022-11-12T02:46:38.623Z,10.48
2022-11-12T02:47:38.547Z,10.40
2022-11-12T02:48:38.512Z,10.40
2022-11-12T02:49:38.482Z,10.38
2022-11-12T02:50:38.472Z,10.46
2022-11-12T02:51:38.475Z,10.35
2022-11-12T02:52:38.460Z,10.44
2022-11-12T02:53:38.953Z,10.44
2022-11-12T02:54:38.431Z,10.41
2022-11-12T02:55:38.422Z,10.40
2022-11-12T02:56:38.446Z,10.38
2022-11-12T02:57:38.412Z,10.37
2022-11-12T02:58:38.445Z,10.42
2022-11-12T02:59:38.393Z,10.40
2022-11-12T03:00:38.498Z,10.41
2022-11-12T03:01:38.367Z,10.41
2022-11-12T03:02:38.458Z,10.49
2022-11-12T03:03:38.356Z,10.48
2022-11-12T03:04:38.360Z,10.40
2022-11-12T03:05:38.317Z,10.49
2022-11-12T03:06:38.360Z,10.40
2022-11-12T03:07:38.283Z,10.44
2022-11-12T03:08:38.295Z,10.41
2022-11-12T03:09:38.284Z,10.46
2022-11-12T03:10:38.259Z,10.51
2022-11-12T03:11:38.262Z,10.51
2022-11-12T03:12:38.230Z,10.38
2022-11-12T03:13:38.221Z,10.41
2022-11-12T03:14:38.226Z,10.35
2022-11-12T03:15:38.197Z,10.40
2022-11-12T03:16:38.194Z,10.42
2022-11-12T03:17:38.205Z,10.40
2022-11-12T03:18:38.281Z,10.44
2022-11-12T03:19:38.162Z,10.42
2022-11-12T03:20:38.150Z,10.37
2022-11-12T03:21:38.139Z,10.41
2022-11-12T03:22:38.131Z,10.33
2022-11-12T03:23:38.128Z,10.42
2022-11-12T03:24:38.098Z,10.41
2022-11-12T03:25:38.131Z,10.37
2022-11-12T03:26:38.137Z,10.38
2022-11-12T03:27:38.093Z,10.26
2022-11-12T03:28:38.115Z,10.30
2022-11-12T03:29:38.064Z,10.26
2022-11-12T03:30:38.146Z,10.19
2022-11-12T03:31:38.056Z,10.17
2022-11-12T03:32:38.052Z,10.13
2022-11-12T03:33:38.049Z,10.10
2022-11-12T03:34:38.162Z,10.17
2022-11-12T03:35:37.982Z,10.20
2022-11-12T03:36:37.977Z,10.16
2022-11-12T03:37:37.960Z,10.15
2022-11-12T03:38:37.968Z,10.19
2022-11-12T03:39:37.955Z,10.13
2022-11-12T03:40:37.952Z,10.13
2022-11-12T03:41:37.923Z,10.23
2022-11-12T03:42:37.919Z,10.25
2022-11-12T03:43:37.920Z,10.09
2022-11-12T03:44:37.897Z,10.17
2022-11-12T03:45:37.887Z,10.10
2022-11-12T03:46:42.955Z,10.15
2022-11-12T03:47:37.856Z,10.13
2022-11-12T03:48:37.845Z,10.22
2022-11-12T03:49:37.879Z,10.16
2022-11-12T03:50:37.942Z,10.20
2022-11-12T03:51:37.825Z,10.25
2022-11-12T03:52:37.806Z,10.26
2022-11-12T03:53:37.793Z,10.28
2022-11-12T03:54:37.777Z,10.28
2022-11-12T03:55:37.773Z,10.26
2022-11-12T03:56:37.774Z,10.28
2022-11-12T03:57:37.779Z,10.25
2022-11-12T03:58:37.735Z,10.28
2022-11-12T03:59:37.766Z,10.26
2022-11-12T04:00:37.715Z,10.22
2022-11-12T04:01:37.754Z,10.26
2022-11-12T04:02:37.711Z,10.20
2022-11-12T04:03:37.693Z,10.22
2022-11-12T04:04:37.673Z,10.26
2022-11-12T04:05:37.691Z,10.20
2022-11-12T04:06:37.810Z,10.20
2022-11-12T04:07:37.674Z,10.23
2022-11-12T04:08:37.663Z,10.17
2022-11-12T04:09:37.645Z,10.20
2022-11-12T04:10:37.609Z,10.07
2022-11-12T04:11:37.589Z,10.10
2022-11-12T04:12:37.594Z,10.17
2022-11-12T04:13:37.603Z,10.09
2022-11-12T04:14:37.581Z,10.12
2022-11-12T04:15:37.550Z,10.16
2022-11-12T04:16:37.556Z,10.20
2022-11-12T04:17:37.537Z,10.19
2022-11-12T04:18:37.572Z,10.07
2022-11-12T04:19:37.511Z,10.15
2022-11-12T04:20:37.508Z,10.07
2022-11-12T04:21:37.496Z,10.16
2022-11-12T04:22:37.577Z,10.09
2022-11-12T04:23:37.467Z,10.09
2022-11-12T04:24:37.503Z,10.17
2022-11-12T04:25:37.446Z,10.13
2022-11-12T04:26:37.430Z,10.17
2022-11-12T04:27:37.416Z,10.12
2022-11-12T04:28:37.404Z,10.16
2022-11-12T04:29:37.726Z,10.12
2022-11-12T04:30:37.395Z,10.10
2022-11-12T04:31:37.377Z,10.17
2022-11-12T04:32:37.372Z,10.12
2022-11-12T04:33:37.348Z,10.12
2022-11-12T04:34:37.334Z,10.10
2022-11-12T04:35:37.347Z,10.19
2022-11-12T04:36:37.317Z,10.13
2022-11-12T04:37:37.307Z,10.09
2022-11-12T04:38:37.414Z,10.12
2022-11-12T04:39:37.289Z,10.10
2022-11-12T04:40:37.284Z,9.98
2022-11-12T04:41:37.279Z,9.98
2022-11-12T04:42:37.263Z,10.07
2022-11-12T04:43:37.242Z,10.02
2022-11-12T04:44:37.229Z,10.07
2022-11-12T04:45:37.242Z,10.07
2022-11-12T04:46:37.217Z,10.10
2022-11-12T04:47:37.206Z,10.02
2022-11-12T04:48:37.188Z,9.97
2022-11-12T04:49:37.182Z,9.98
2022-11-12T04:50:37.168Z,9.99
2022-11-12T04:51:37.167Z,9.94
2022-11-12T04:52:37.146Z,9.94
2022-11-12T04:53:37.150Z,9.99
2022-11-12T04:54:37.225Z,9.89
2022-11-12T04:55:37.115Z,9.94
2022-11-12T04:56:37.102Z,9.95
2022-11-12T04:57:37.085Z,9.95
2022-11-12T04:58:37.086Z,9.98
2022-11-12T04:59:37.061Z,9.98
2022-11-12T05:00:37.049Z,9.95
2022-11-12T05:01:37.094Z,9.99
2022-11-12T05:02:37.059Z,10.01
2022-11-12T05:03:37.018Z,10.02
2022-11-12T05:04:37.017Z,9.95
2022-11-12T05:05:37.001Z,10.01
2022-11-12T05:06:37.059Z,9.87
2022-11-12T05:07:36.976Z,9.89
2022-11-12T05:08:36.989Z,9.84
2022-11-12T05:09:36.958Z,9.98
2022-11-12T05:10:37.071Z,9.83
2022-11-12T05:11:45.994Z,9.86
2022-11-12T05:12:36.929Z,9.89
2022-11-12T05:13:36.923Z,9.92
2022-11-12T05:14:36.906Z,9.87
2022-11-12T05:15:36.885Z,9.89
2022-11-12T05:16:36.902Z,9.84
2022-11-12T05:17:36.864Z,9.89
2022-11-12T05:18:36.868Z,9.94
2022-11-12T05:19:36.850Z,9.84
2022-11-12T05:20:36.846Z,9.89
2022-11-12T05:21:42.210Z,9.91
2022-11-12T05:22:45.696Z,9.84
2022-11-12T05:23:37.806Z,9.84
2022-11-12T05:24:41.872Z,9.84
2022-11-12T05:25:37.773Z,9.86
2022-11-12T05:26:36.891Z,9.80
2022-11-12T05:27:36.766Z,9.79
2022-11-12T05:28:36.742Z,9.83
2022-11-12T05:29:36.737Z,9.86
2022-11-12T05:30:36.742Z,9.83
2022-11-12T05:31:36.722Z,9.79
2022-11-12T05:32:36.721Z,9.74
2022-11-12T05:33:36.688Z,9.73
2022-11-12T05:34:36.680Z,9.80
2022-11-12T05:35:36.677Z,9.73
2022-11-12T05:36:36.664Z,9.76
2022-11-12T05:37:36.671Z,9.73
2022-11-12T05:38:36.640Z,9.72
2022-11-12T05:39:36.632Z,9.65
2022-11-12T05:40:36.620Z,9.62
2022-11-12T05:41:58.308Z,9.68
2022-11-12T05:42:37.716Z,9.68
2022-11-12T05:43:36.587Z,9.72
2022-11-12T05:44:36.572Z,9.61
2022-11-12T05:45:36.563Z,9.61
2022-11-12T05:46:36.545Z,9.66
2022-11-12T05:47:36.561Z,9.58
2022-11-12T05:48:36.545Z,9.55
2022-11-12T05:49:36.515Z,9.68
2022-11-12T05:50:45.410Z,9.54
2022-11-12T05:51:37.499Z,9.58
2022-11-12T05:52:36.491Z,9.56
2022-11-12T05:53:36.513Z,9.56
2022-11-12T05:54:36.466Z,9.54
2022-11-12T05:55:37.289Z,9.61
2022-11-12T05:56:36.441Z,9.54
2022-11-12T05:57:36.425Z,9.50
2022-11-12T05:58:36.533Z,9.56
2022-11-12T05:59:36.427Z,9.56
2022-11-12T06:00:36.394Z,9.47
2022-11-12T06:01:36.398Z,9.50
2022-11-12T06:02:36.509Z,9.51
2022-11-12T06:03:36.367Z,9.47
2022-11-12T06:04:36.378Z,9.48
2022-11-12T06:05:36.346Z,9.46
2022-11-12T06:06:36.347Z,9.41
2022-11-12T06:07:36.317Z,9.43
2022-11-12T06:08:36.311Z,9.40
2022-11-12T06:09:36.322Z,9.41
2022-11-12T06:10:36.297Z,9.46
2022-11-12T06:11:36.279Z,9.41
2022-11-12T06:12:36.269Z,9.46
2022-11-12T06:13:36.252Z,9.46
2022-11-12T06:14:36.353Z,9.43
2022-11-12T06:15:39.272Z,9.34
2022-11-12T06:16:36.238Z,9.43
2022-11-12T06:17:36.218Z,9.32
2022-11-12T06:18:36.203Z,9.32
2022-11-12T06:19:36.194Z,9.43
2022-11-12T06:20:36.195Z,9.29
2022-11-12T06:21:36.192Z,9.39
2022-11-12T06:22:36.155Z,9.43
2022-11-12T06:23:36.149Z,9.39
2022-11-12T06:24:36.138Z,9.41
2022-11-12T06:25:36.137Z,9.36
2022-11-12T06:26:36.123Z,9.39
2022-11-12T06:27:36.124Z,9.39
2022-11-12T06:28:36.146Z,9.31
2022-11-12T06:29:36.096Z,9.28
2022-11-12T06:30:36.183Z,9.29
2022-11-12T06:31:36.055Z,9.29
2022-11-12T06:32:36.045Z,9.46
2022-11-12T06:33:36.052Z,9.37
2022-11-12T06:34:36.031Z,9.39
2022-11-12T06:35:40.219Z,9.46
2022-11-12T06:36:37.017Z,9.40
2022-11-12T06:37:36.011Z,9.43
2022-11-12T06:38:35.994Z,9.46
2022-11-12T06:39:35.975Z,9.44
2022-11-12T06:40:35.966Z,9.44
2022-11-12T06:41:35.957Z,9.48
2022-11-12T06:42:35.935Z,9.39
2022-11-12T06:43:35.956Z,9.44
2022-11-12T06:44:35.940Z,9.47
2022-11-12T06:45:35.922Z,9.54
2022-11-12T06:46:36.015Z,9.54
2022-11-12T06:47:35.884Z,9.55
2022-11-12T06:48:35.877Z,9.50
2022-11-12T06:49:35.877Z,9.55
2022-11-12T06:50:35.854Z,9.47
2022-11-12T06:51:35.846Z,9.54
2022-11-12T06:52:35.825Z,9.48
2022-11-12T06:53:35.824Z,9.54
2022-11-12T06:54:35.825Z,9.50
2022-11-12T06:55:35.802Z,9.58
2022-11-12T06:56:35.801Z,9.56
2022-11-12T06:57:35.792Z,9.61
2022-11-12T06:58:35.772Z,9.55
2022-11-12T06:59:35.762Z,9.72
2022-11-12T07:00:35.742Z,9.56
2022-11-12T07:01:35.765Z,9.59
2022-11-12T07:02:35.845Z,9.62
2022-11-12T07:03:35.728Z,9.65
2022-11-12T07:04:35.695Z,9.62
2022-11-12T07:05:36.487Z,9.64
2022-11-12T07:06:35.746Z,9.68
2022-11-12T07:07:35.686Z,9.62
2022-11-12T07:08:35.655Z,9.65
2022-11-12T07:09:35.650Z,9.68
2022-11-12T07:10:35.642Z,9.82
2022-11-12T07:11:35.642Z,9.80
2022-11-12T07:12:35.614Z,9.74
2022-11-12T07:13:35.632Z,9.83
2022-11-12T07:14:35.587Z,9.76
2022-11-12T07:15:35.584Z,9.83
2022-11-12T07:16:35.591Z,9.91
2022-11-12T07:17:35.562Z,9.95
2022-11-12T07:18:35.679Z,9.86
2022-11-12T07:19:35.543Z,9.92
2022-11-12T07:20:35.529Z,9.94
2022-11-12T07:21:35.509Z,9.95
2022-11-12T07:22:35.530Z,9.98
2022-11-12T07:23:35.508Z,9.99
2022-11-12T07:24:35.495Z,9.98
2022-11-12T07:25:35.467Z,9.99
2022-11-12T07:26:35.462Z,9.97
2022-11-12T07:27:35.443Z,10.05
2022-11-12T07:28:35.439Z,10.07
2022-11-12T07:29:47.369Z,10.05
2022-11-12T07:30:36.420Z,10.13
2022-11-12T07:31:35.423Z,10.13
2022-11-12T07:32:41.944Z,10.17
2022-11-12T07:33:36.379Z,10.13
2022-11-12T07:34:35.491Z,10.23
2022-11-12T07:35:35.356Z,10.15
2022-11-12T07:36:35.363Z,10.25
2022-11-12T07:37:35.338Z,10.23
2022-11-12T07:38:35.339Z,10.28
2022-11-12T07:39:35.320Z,10.26
2022-11-12T07:40:35.303Z,10.34
2022-11-12T07:41:35.314Z,10.33
2022-11-12T07:42:35.304Z,10.26
2022-11-12T07:43:35.280Z,10.26
2022-11-12T07:44:35.268Z,10.31
2022-11-12T07:45:35.258Z,10.23
2022-11-12T07:46:35.246Z,10.25
2022-11-12T07:47:35.262Z,10.22
2022-11-12T07:48:35.218Z,10.31
2022-11-12T07:49:35.214Z,10.44
2022-11-12T07:50:35.312Z,10.35
2022-11-12T07:51:35.191Z,10.56
2022-11-12T07:52:35.184Z,10.53
2022-11-12T07:53:35.183Z,10.69
2022-11-12T07:54:35.154Z,10.72
2022-11-12T07:55:35.142Z,10.68
2022-11-12T07:56:35.131Z,10.76
2022-11-12T07:57:35.125Z,10.81
2022-11-12T07:58:35.130Z,10.84
2022-11-12T07:59:35.103Z,11.00
2022-11-12T08:00:35.085Z,11.14
2022-11-12T08:01:35.152Z,11.15
2022-11-12T08:02:35.074Z,11.36
2022-11-12T08:03:35.100Z,11.48
2022-11-12T08:04:35.043Z,11.59
2022-11-12T08:05:35.030Z,11.65
2022-11-12T08:06:35.328Z,11.75
2022-11-12T08:07:35.093Z,12.04
2022-11-12T08:08:35.004Z,12.39
2022-11-12T08:09:35.025Z,13.00
2022-11-12T08:10:34.987Z,13.63
2022-11-12T08:11:34.971Z,14.28
2022-11-12T08:12:34.956Z,14.85
2022-11-12T08:13:34.942Z,15.29
2022-11-12T08:14:34.941Z,15.83
2022-11-12T08:15:34.933Z,15.95
2022-11-12T08:16:34.915Z,16.36
2022-11-12T08:17:34.906Z,16.66
2022-11-12T08:18:34.897Z,16.61
2022-11-12T08:19:34.891Z,16.43
2022-11-12T08:20:34.873Z,16.29
2022-11-12T08:21:34.856Z,16.16
2022-11-12T08:22:34.958Z,16.05
2022-11-12T08:23:34.865Z,16.02
2022-11-12T08:24:34.821Z,16.01
2022-11-12T08:25:34.828Z,15.83
2022-11-12T08:26:34.822Z,15.83
2022-11-12T08:27:34.797Z,16.29
2022-11-12T08:28:34.801Z,16.81
2022-11-12T08:29:34.775Z,17.56
2022-11-12T08:30:34.758Z,17.97
2022-11-12T08:31:34.758Z,18.37
2022-11-12T08:32:34.971Z,18.74
2022-11-12T08:33:34.737Z,19.02
2022-11-12T08:34:34.719Z,19.00
2022-11-12T08:35:34.721Z,18.88
2022-11-12T08:36:34.707Z,18.78
2022-11-12T08:37:34.688Z,18.80
2022-11-12T08:38:34.811Z,18.63
2022-11-12T08:39:34.657Z,18.53
2022-11-12T08:40:34.650Z,18.37
2022-11-12T08:41:34.638Z,18.22
2022-11-12T08:42:34.627Z,18.18
2022-11-12T08:43:34.625Z,18.00
2022-11-12T08:44:34.617Z,17.76
2022-11-12T08:45:34.603Z,17.41
2022-11-12T08:46:34.603Z,17.19
2022-11-12T08:47:34.578Z,17.02
2022-11-12T08:48:34.578Z,16.78
2022-11-12T08:49:34.574Z,16.72
2022-11-12T08:50:34.543Z,16.74
2022-11-12T08:51:34.533Z,16.75
2022-11-12T08:52:34.516Z,16.75
2022-11-12T08:53:34.519Z,16.64
2022-11-12T08:54:34.617Z,16.58
2022-11-12T08:55:34.501Z,16.71
2022-11-12T08:56:34.475Z,16.84
2022-11-12T08:57:34.472Z,16.96
2022-11-12T08:58:34.454Z,16.84
2022-11-12T08:59:34.440Z,16.69
2022-11-12T09:00:34.455Z,16.46
2022-11-12T09:01:34.468Z,16.29
2022-11-12T09:02:34.406Z,16.21
2022-11-12T09:03:34.411Z,16.08
2022-11-12T09:04:34.383Z,15.97
2022-11-12T09:05:34.391Z,15.84
2022-11-12T09:06:34.539Z,15.86
2022-11-12T09:07:50.815Z,15.68
2022-11-12T09:08:35.381Z,15.64
2022-11-12T09:09:34.349Z,15.55
2022-11-12T09:10:34.452Z,15.40
2022-11-12T09:11:34.313Z,15.42
2022-11-12T09:12:34.328Z,15.28
2022-11-12T09:13:34.395Z,15.24
2022-11-12T09:14:34.290Z,15.21
2022-11-12T09:15:38.548Z,15.22
2022-11-12T09:16:34.286Z,15.28
2022-11-12T09:17:34.247Z,15.65
2022-11-12T09:18:34.238Z,15.83
2022-11-12T09:19:36.511Z,15.88
2022-11-12T09:20:35.236Z,15.72
2022-11-12T09:21:34.222Z,15.70
2022-11-12T09:22:34.183Z,15.59
2022-11-12T09:23:34.175Z,15.52
2022-11-12T09:24:34.167Z,15.55
2022-11-12T09:25:34.162Z,15.64
2022-11-12T09:26:34.255Z,16.08
2022-11-12T09:27:34.160Z,16.75
2022-11-12T09:28:34.135Z,17.45
2022-11-12T09:29:34.116Z,17.94
2022-11-12T09:30:34.104Z,18.25
2022-11-12T09:31:35.075Z,18.41
2022-11-12T09:32:34.103Z,18.53
2022-11-12T09:33:34.075Z,18.55
2022-11-12T09:34:34.079Z,18.58
2022-11-12T09:35:34.091Z,18.56
2022-11-12T09:36:39.509Z,18.80
2022-11-12T09:37:35.046Z,18.95
2022-11-12T09:38:34.061Z,18.88
2022-11-12T09:39:34.036Z,18.75
2022-11-12T09:40:33.993Z,18.58
2022-11-12T09:41:33.987Z,18.35
2022-11-12T09:42:34.092Z,18.07
2022-11-12T09:43:34.105Z,17.90
2022-11-12T09:44:36.814Z,17.85
2022-11-12T09:45:33.933Z,17.79
2022-11-12T09:46:33.928Z,17.64
2022-11-12T09:47:33.908Z,17.52
2022-11-12T09:48:33.926Z,17.49
2022-11-12T09:49:33.909Z,17.44
2022-11-12T09:50:33.886Z,17.38
2022-11-12T09:51:33.877Z,17.26
2022-11-12T09:52:33.869Z,17.29
2022-11-12T09:53:33.857Z,17.23
2022-11-12T09:54:33.870Z,17.19
2022-11-12T09:55:33.836Z,17.11
2022-11-12T09:56:33.811Z,17.12
2022-11-12T09:57:33.812Z,17.15
2022-11-12T09:58:33.907Z,17.12
2022-11-12T09:59:33.788Z,17.08
2022-11-12T10:00:33.787Z,17.04
2022-11-12T10:01:33.810Z,17.06
2022-11-12T10:02:33.761Z,17.08
2022-11-12T10:03:33.734Z,16.97
2022-11-12T10:04:33.745Z,16.99
2022-11-12T10:05:33.752Z,16.90
2022-11-12T10:06:33.727Z,16.86
2022-11-12T10:07:33.705Z,16.76
2022-11-12T10:08:33.688Z,16.78
2022-11-12T10:09:33.689Z,16.75
2022-11-12T10:10:33.702Z,16.75
2022-11-12T10:11:33.663Z,16.65
2022-11-12T10:12:33.659Z,16.72
2022-11-12T10:13:33.639Z,16.72
2022-11-12T10:14:33.727Z,16.69
2022-11-12T10:15:33.610Z,16.60
2022-11-12T10:16:33.622Z,16.65
2022-11-12T10:17:33.618Z,16.56
2022-11-12T10:18:33.582Z,16.54
2022-11-12T10:19:33.565Z,16.54
2022-11-12T10:20:38.529Z,16.49
2022-11-12T10:21:34.562Z,16.53
2022-11-12T10:22:33.543Z,16.57
2022-11-12T10:23:33.529Z,16.54
2022-11-12T10:24:33.523Z,16.56
2022-11-12T10:25:33.506Z,16.56
2022-11-12T10:26:33.492Z,16.53
2022-11-12T10:27:33.473Z,16.64
2022-11-12T10:28:38.432Z,16.61
2022-11-12T10:29:34.463Z,16.61
2022-11-12T10:30:33.558Z,16.64
2022-11-12T10:31:33.448Z,16.71
2022-11-12T10:32:33.432Z,16.64
2022-11-12T10:33:33.430Z,16.66
2022-11-12T10:34:33.429Z,16.66
2022-11-12T10:35:33.390Z,16.68
2022-11-12T10:36:33.385Z,16.68
2022-11-12T10:37:33.392Z,16.61
2022-11-12T10:38:33.366Z,16.65
2022-11-12T10:39:33.378Z,16.72
2022-11-12T10:40:33.341Z,16.71
2022-11-12T10:41:33.346Z,16.74
2022-11-12T10:42:33.314Z,16.71
2022-11-12T10:43:33.312Z,16.69
2022-11-12T10:44:33.648Z,16.72
2022-11-12T10:45:33.296Z,16.78
2022-11-12T10:46:33.385Z,16.81
2022-11-12T10:47:33.265Z,16.79
2022-11-12T10:48:33.698Z,16.87
2022-11-12T10:49:33.232Z,16.97
2022-11-12T10:50:33.243Z,16.94
2022-11-12T10:51:33.222Z,16.97
2022-11-12T10:52:33.213Z,17.01
2022-11-12T10:53:33.202Z,17.04
2022-11-12T10:54:33.186Z,17.05
2022-11-12T10:55:33.196Z,16.94
2022-11-12T10:56:33.205Z,16.94
2022-11-12T10:57:33.147Z,16.96
2022-11-12T10:58:33.138Z,17.04
2022-11-12T10:59:33.134Z,16.99
2022-11-12T11:00:33.178Z,17.06
2022-11-12T11:01:35.770Z,16.97
2022-11-12T11:02:33.230Z,16.91
2022-11-12T11:03:33.084Z,16.89
2022-11-12T11:04:33.100Z,16.91
2022-11-12T11:05:33.122Z,16.89
2022-11-12T11:06:33.068Z,16.94
2022-11-12T11:07:33.067Z,16.93
2022-11-12T11:08:35.876Z,16.87
2022-11-12T11:09:33.050Z,16.93
2022-11-12T11:10:33.037Z,16.90
2022-11-12T11:11:33.010Z,16.94
2022-11-12T11:12:41.649Z,16.91
2022-11-12T11:13:32.977Z,16.90
2022-11-12T11:14:32.987Z,17.05
2022-11-12T11:15:32.951Z,16.97
2022-11-12T11:16:32.963Z,17.08
2022-11-12T11:17:32.949Z,17.12
2022-11-12T11:18:33.022Z,17.16
2022-11-12T11:19:32.904Z,17.14
2022-11-12T11:20:32.897Z,17.24
2022-11-12T11:21:35.660Z,17.15
2022-11-12T11:22:33.887Z,17.15
2022-11-12T11:23:32.877Z,17.12
2022-11-12T11:24:32.869Z,17.11
2022-11-12T11:25:32.851Z,17.05
2022-11-12T11:26:32.830Z,17.05
2022-11-12T11:27:32.839Z,16.99
2022-11-12T11:28:32.844Z,17.06
2022-11-12T11:29:32.814Z,16.93
2022-11-12T11:30:32.809Z,16.91
2022-11-12T11:31:32.780Z,16.83
2022-11-12T11:32:37.187Z,16.81
2022-11-12T11:33:32.769Z,16.75
2022-11-12T11:34:32.864Z,16.72
2022-11-12T11:35:32.748Z,16.64
2022-11-12T11:36:32.758Z,16.60
2022-11-12T11:37:32.735Z,16.53
2022-11-12T11:38:32.717Z,16.42
2022-11-12T11:39:32.693Z,16.35
2022-11-12T11:40:32.691Z,16.33
2022-11-12T11:41:32.687Z,16.36
2022-11-12T11:42:32.679Z,16.21
2022-11-12T11:43:32.709Z,16.13
2022-11-12T11:44:32.710Z,16.16
2022-11-12T11:45:32.705Z,16.13
2022-11-12T11:46:32.621Z,16.13
2022-11-12T11:47:50.408Z,16.13
2022-11-12T11:48:33.594Z,16.13
2022-11-12T11:49:32.613Z,16.15
2022-11-12T11:50:32.678Z,16.21
2022-11-12T11:51:32.563Z,16.23
2022-11-12T11:52:32.570Z,16.12
2022-11-12T11:53:32.533Z,16.17
2022-11-12T11:54:32.538Z,16.17
2022-11-12T11:55:32.523Z,16.24
2022-11-12T11:56:32.511Z,16.29
2022-11-12T11:57:32.516Z,16.32
2022-11-12T11:58:32.522Z,16.43
2022-11-12T11:59:32.482Z,16.39
2022-11-12T12:00:32.514Z,16.38
2022-11-12T12:01:32.457Z,16.46
2022-11-12T12:02:32.440Z,16.50
2022-11-12T12:03:33.105Z,16.46
2022-11-12T12:04:32.434Z,16.50
2022-11-12T12:05:32.445Z,16.46
2022-11-12T12:06:32.509Z,16.46
2022-11-12T12:07:32.404Z,16.47
2022-11-12T12:08:32.370Z,16.54
2022-11-12T12:09:32.396Z,16.49
2022-11-12T12:10:53.751Z,16.54
2022-11-12T12:11:33.359Z,16.56
2022-11-12T12:12:32.336Z,16.54
2022-11-12T12:13:32.340Z,16.46
2022-11-12T12:14:32.313Z,16.41
2022-11-12T12:15:32.340Z,16.51
2022-11-12T12:16:32.304Z,16.49
2022-11-12T12:17:32.314Z,16.57
2022-11-12T12:18:32.268Z,16.51
2022-11-12T12:19:32.246Z,16.57
2022-11-12T12:20:32.244Z,16.54
2022-11-12T12:21:32.241Z,16.58
2022-11-12T12:22:32.341Z,16.60
2022-11-12T12:23:32.210Z,16.66
2022-11-12T12:24:32.191Z,16.61
2022-11-12T12:25:32.187Z,16.71
2022-11-12T12:26:32.204Z,16.57
2022-11-12T12:27:32.169Z,16.66
2022-11-12T12:28:32.151Z,16.60
2022-11-12T12:29:32.143Z,16.58
2022-11-12T12:30:32.141Z,16.56
2022-11-12T12:31:32.141Z,16.51
2022-11-12T12:32:32.101Z,16.56
2022-11-12T12:33:32.095Z,16.56
2022-11-12T12:34:32.085Z,16.53
2022-11-12T12:35:32.109Z,16.54
2022-11-12T12:36:32.059Z,16.58
2022-11-12T12:37:32.077Z,16.57
2022-11-12T12:38:32.179Z,16.65
2022-11-12T12:39:32.030Z,16.64
2022-11-12T12:40:32.014Z,16.66
2022-11-12T12:41:32.011Z,16.66
2022-11-12T12:42:32.013Z,16.61
2022-11-12T12:43:31.995Z,16.69
2022-11-12T12:44:31.996Z,16.68
2022-11-12T12:45:35.907Z,16.69
2022-11-12T12:46:31.950Z,16.64
2022-11-12T12:47:31.954Z,16.71
2022-11-12T12:48:31.961Z,16.71
2022-11-12T12:49:31.929Z,16.74
2022-11-12T12:50:31.899Z,16.74
2022-11-12T12:51:31.948Z,16.79
2022-11-12T12:52:31.877Z,16.84
2022-11-12T12:53:31.873Z,16.89
2022-11-12T12:54:31.982Z,16.83
2022-11-12T12:55:31.857Z,16.86
2022-11-12T12:56:31.849Z,16.84
2022-11-12T12:57:31.828Z,16.91